Terminal Aerodrome Forecast
Issued by NWS Twin Cities, MN

Home | Current Version | Previous Version | Text Only | Print | Product List | Glossary Off
Versions: 1 2 3 4 5 6 7 8 9 10 11 12 13 14

000
FTUS43 KMPX 231138
TAFEAU
TAF
KEAU 231138Z 2312/2412 17009KT P6SM SKC
     FM231600 19013G21KT P6SM BKN250
     FM240000 17009KT P6SM SCT050 BKN150
     FM240600 17007KT 5SM -SHRA VCTS SCT012 OVC025CB=

USA.gov is the U.S. government's official web portal to all federal, state and local government web resources and services.